Aviation Digital Data Service (ADDS)

Output produced by METARs form (0000 UTC 19 October 2019)
found at http://www.aviationweather.gov/metar/data/
 
KFHR 182353Z AUTO 18004KT 10SM FEW037 FEW044 OVC085 09/08 A2984 RMK AO2 SLP105 60003 T00940078 10111 20094 58005
KORS 182355Z AUTO 13007KT 10SM -RA FEW011 BKN047 OVC055 10/09 A2982 RMK AO2
KBLI 182353Z 17009KT 10SM SCT022 OVC048 11/07 A2983 RMK AO2 RAE03 SLP109 P0000 60011 T01110072 10117 20106 56007
KBLI 182325Z 1900/1924 16012G18KT P6SM -RA SCT020 BKN045 OVC050 
     FM190800 15005KT 4SM -RA OVC020 
     FM191600 16001KT 4SM -RA OVC010 
     FM192100 18006KT 6SM -RA BR OVC015
       
KBVS 182355Z AUTO 15005KT 10SM FEW031 BKN039 OVC060 10/08 A2986 RMK A01
KNUW 182356Z 16008KT 10SM SCT025 BKN055 OVC090 13/08 A2989 RMK AO2 SLP121 60000 T01280078 10133 20128 53002 $
TAF KNUW 1823/1923 15012G24KT 9999 VCSH SCT010 BKN045 OVC120 640509 520004
530409 QNH2979INS 
     TEMPO 1823/1905 16008KT 9999 -SHRA FEW005 BKN015 BKN025 OVC060 
     FM190500 15010KT 9999 VCSH SCT012 BKN025 BKN040 OVC120 640509 500000
QNH2964INS 
     TEMPO 1912/1918 VRB06KT 4800 RA BR BKN008 OVC040 T15/1823Z T08/1913Z
FS30028
       
KPAE 182353Z 18011KT 10SM BKN008 OVC017 11/08 A2986 RMK AO2 SLP114 60000 T01060078 10106 20100 58000
KPAE 182325Z 1900/1924 17015KT P6SM -RA BKN010 OVC020 
     FM190200 16010KT P6SM OVC025 
     FM190700 16010KT 5SM -RA BR BKN015 OVC025 
     FM191300 17006KT 4SM -RA OVC010 
     FM191800 21006KT 4SM -RA BR OVC007
       
KBFI 182353Z 14008KT 10SM SCT025 OVC050 11/09 A2988 RMK AO2 RAE43 SLP116 P0000 60000 T01060089 10117 20100 58009
KBFI 182325Z 1900/1924 15010KT P6SM -RA SCT012 BKN030 OVC050 
     FM190200 17006KT P6SM SCT025 OVC050 
     FM190700 15004KT P6SM -RA BKN020 OVC030 
     FM191200 15003KT 6SM -RA BR OVC015 
     FM191500 15003KT 5SM -RA BR OVC010 
     FM191800 18005KT 4SM -RA BR OVC015
       
KSEA 182353Z 15011KT 10SM FEW020 BKN030 OVC065 11/09 A2987 RMK AO2 RAE50 SLP122 P0000 60011 T01110094 10111 20094 58011
KSEA 182325Z 1900/2006 18007KT P6SM -RA SCT018 BKN040 OVC050 
     FM190200 18008KT 6SM -RA BR SCT025 OVC050 
     FM190700 16006KT 5SM -RA BR BKN015 OVC025 
     FM191200 16007KT 5SM -RA BR BKN015 OVC025 
     FM191500 18005KT 4SM -RA BR OVC010 
     FM191900 20010KT 4SM -RA BR BKN015 OVC025
       
CYYJ 182300Z 20005KT 160V230 30SM FEW035 FEW050 BKN110 BKN160 11/08 A2981 RMK SC1SC1AC3AC2 SLP097
TAF CYYJ 182338Z 1900/1924 20006KT P6SM FEW025 SCT050 BKN090 
     TEMPO 1900/1908 P6SM -SHRA BKN030 
     FM190800 VRB03KT 6SM -SHRA BR SCT006 BKN012 OVC040 
     TEMPO 1908/1918 2SM -SHRA BR OVC006 
     BECMG 1910/1912 28010KT 
     FM191800 01007KT P6SM -SHRA FEW015 BKN030 RMK NXT FCST BY 190600Z
       
CYVR 182300Z 16014KT 15SM FEW022 BKN057 BKN100 OVC160 11/08 A2980 RMK SC1SC5AC2AC1 SC TR SH W-NW SLP091
TAF CYVR 182338Z 1900/2006 16012KT P6SM SCT015 BKN040 BKN080 
     TEMPO 1900/1907 P6SM -SHRA FEW008 BKN015 OVC040 
     FM190700 12008KT P6SM -SHRA SCT008 BKN015 
     TEMPO 1907/1913 4SM -SHRA BR BKN008 
     FM191300 32010KT P6SM -SHRA FEW020 BKN030 
     FM200000 28012KT P6SM FEW025 SCT050 RMK NXT FCST BY 190300Z